St. Bartholomew — WDI6417 — position and weather

sailwx.info

Track history (hours):
 
Tides and Currents Weather Stations Pressure Air Temp Water Temp Dewpoint Dewpoint Depression Visibility Wind Speed Wind Dir Waves Ship Positions

St. Bartholomew

Owner: Marquette Transportation Company Gulf-Inland, LLC, Jefferson, LA. More information available from US FCC via Universal Licensing System and Coast Guard Vessel Documentation Center.

Last reported at 2018-Jan-07 22:54 UTC. Time now 2018-Jan-18 06:15 UTC.
Position N 32°40' W 091°07'.
Warning: this ship's position is 10 days out of date.

Length 223 m; draft 3.1 m.

Type: Towing. MMSI: 367718490.

Date/timePositionNaut miles runAvg speedWind from/ knotsBaromVisibWave heightAir tempDewpointWater temp
2018-Jan-07 22:54N 32°40' W 091°07'1 2.2
2018-Jan-07 22:31N 32°40' W 091°08'2 2.4
2018-Jan-07 21:49N 32°38' W 091°09'1 2.1
2018-Jan-07 21:31N 32°38' W 091°09'1 2.2
2018-Jan-07 21:01N 32°37' W 091°09'2 3.2
2018-Jan-07 20:31N 32°35' W 091°08'2 3.4
2018-Jan-07 19:51N 32°34' W 091°06'1 3.0
2018-Jan-07 19:31N 32°33' W 091°06'1 2.9
2018-Jan-07 19:00N 32°31' W 091°06'2 3.7
2018-Jan-07 18:31N 32°30' W 091°07'2 3.6
2018-Jan-07 18:00N 32°28' W 091°06'2 3.4
2018-Jan-07 17:31N 32°27' W 091°05'2 3.3
2018-Jan-07 17:01N 32°26' W 091°03'2 3.1
2018-Jan-07 16:31N 32°26' W 091°01'2 3.1
2018-Jan-07 16:01N 32°25' W 090°60'1 2.4
2018-Jan-07 15:31N 32°24' W 090°60'1 2.4
2018-Jan-07 15:01N 32°23' W 091°00'1 2.3
2018-Jan-07 14:31N 32°21' W 090°60'2 3.6
2018-Jan-07 14:01N 32°21' W 090°58'1 2.7
2018-Jan-07 13:31N 32°21' W 090°56'2 3.1
2018-Jan-07 13:01N 32°20' W 090°55'1 2.7
2018-Jan-07 12:30N 32°19' W 090°54'2 3.1
2018-Jan-07 12:01N 32°18' W 090°56'2 3.1
2018-Jan-07 11:31N 32°17' W 090°57'1 2.8
2018-Jan-07 11:01N 32°16' W 090°58'1 2.7
2018-Jan-07 10:31N 32°14' W 090°59'2 3.1
2018-Jan-07 10:00N 32°13' W 090°59'2 3.3
2018-Jan-07 09:31N 32°11' W 090°60'2 3.2
2018-Jan-07 09:01N 32°10' W 091°00'2 3.5
2018-Jan-07 08:31N 32°08' W 091°00'2 3.0
2018-Jan-07 07:59N 32°07' W 091°02'2 3.0
2018-Jan-07 07:10N 32°08' W 091°05'1 2.8
2018-Jan-07 06:53N 32°08' W 091°06'1 3.0
2018-Jan-07 06:30N 32°07' W 091°07'4 3.1
2018-Jan-07 05:06N 32°04' W 091°03'0 2.7
2018-Jan-07 05:01N 32°04' W 091°03'2 3.3
2018-Jan-07 04:22N 32°02' W 091°04'  
2018-Jan-03 19:58N 29°50' W 091°58'0 0.7
2018-Jan-03 19:30N 29°50' W 091°58'3 5.8
2018-Jan-03 18:55N 29°49' W 092°02'2 5.2
2018-Jan-03 18:30N 29°48' W 092°04'3 5.3
2018-Jan-03 18:00N 29°47' W 092°07'2 3.2
2018-Jan-03 17:30N 29°47' W 092°09'3 5.3
2018-Jan-03 17:00N 29°47' W 092°12'1 3.0
2018-Jan-03 16:30N 29°48' W 092°13'3 6.6
2018-Jan-03 16:00N 29°49' W 092°17'3 5.9
2018-Jan-03 15:30N 29°50' W 092°20'36 5.0
2018-Jan-03 08:20N 29°56' W 093°00'2 4.5
2018-Jan-03 07:58N 29°56' W 093°02'1 1.5
2018-Jan-03 07:30N 29°56' W 093°03'3 5.6
2018-Jan-03 07:00N 29°56' W 093°06'1 2.2
2018-Jan-03 06:30N 29°56' W 093°07'1 1.2
2018-Jan-03 06:00N 29°56' W 093°08'0 0.0
2018-Jan-03 05:30N 29°56' W 093°08'1 2.1
2018-Jan-03 05:00N 29°56' W 093°09'3 5.7
2018-Jan-03 04:30N 29°58' W 093°12'3 5.7
2018-Jan-03 04:00N 30°00' W 093°14'3 5.2
2018-Jan-03 03:30N 30°02' W 093°16'3 5.6
2018-Jan-03 03:00N 30°05' W 093°17'1 2.7
2018-Jan-03 02:30N 30°06' W 093°18'0 0.0
2018-Jan-03 02:00N 30°06' W 093°18'0 0.7
2018-Jan-03 01:30N 30°06' W 093°19'1 1.9
2018-Jan-03 01:00N 30°06' W 093°20'0 0.3
2018-Jan-03 00:30N 30°06' W 093°20'0 0.0
2018-Jan-03 00:00N 30°06' W 093°20'0 0.2
2018-Jan-02 23:30N 30°06' W 093°20'0 0.0
2018-Jan-02 23:00N 30°06' W 093°20'0 0.0
2018-Jan-02 22:30N 30°06' W 093°20'0 0.0
2018-Jan-02 22:00N 30°06' W 093°20'0 0.0
2018-Jan-02 21:30N 30°06' W 093°20'0 0.0
2018-Jan-02 21:00N 30°06' W 093°20'0 0.0
2018-Jan-02 20:30N 30°06' W 093°20'0 0.0
2018-Jan-02 20:00N 30°06' W 093°20'0 0.0
2018-Jan-02 19:30N 30°06' W 093°20'0 0.0
2018-Jan-02 19:00N 30°06' W 093°20'0 0.0
2018-Jan-02 18:30N 30°06' W 093°20'0 0.0
2018-Jan-02 18:00N 30°06' W 093°20'0 0.0
2018-Jan-02 17:30N 30°06' W 093°20'0 0.0
2018-Jan-02 17:00N 30°06' W 093°20'0 0.0
2018-Jan-02 16:30N 30°06' W 093°20'0 0.0
2018-Jan-02 16:00N 30°06' W 093°20'0 0.0
2018-Jan-02 15:30N 30°06' W 093°20'0 0.0
2018-Jan-02 15:00N 30°06' W 093°20'0 0.0
2018-Jan-02 14:30N 30°06' W 093°20'0 0.0
2018-Jan-02 14:00N 30°06' W 093°20'0 0.0
2018-Jan-02 13:30N 30°06' W 093°20'0 0.0
2018-Jan-02 13:00N 30°06' W 093°20'0 0.0
2018-Jan-02 12:30N 30°06' W 093°20'0 0.0
2018-Jan-02 12:00N 30°06' W 093°20'0 0.0
2018-Jan-02 11:30N 30°06' W 093°20'0 0.0
2018-Jan-02 11:00N 30°06' W 093°20'0 0.0
2018-Jan-02 10:30N 30°06' W 093°20'0 0.0
2018-Jan-02 10:00N 30°06' W 093°20'0 0.0
2018-Jan-02 09:30N 30°06' W 093°20'0 0.0
2018-Jan-02 08:30N 30°06' W 093°20'0 0.0
2018-Jan-02 08:00N 30°06' W 093°20'0 0.0
2018-Jan-02 07:30N 30°06' W 093°20'0 0.0
2018-Jan-02 07:00N 30°06' W 093°20'0 0.0
2018-Jan-02 06:30N 30°06' W 093°20'0 0.0
2018-Jan-02 06:00N 30°06' W 093°20'0 0.0
2018-Jan-02 05:30N 30°06' W 093°20'0 0.0
2018-Jan-02 04:30N 30°06' W 093°20'0 0.0
2018-Jan-02 04:00N 30°06' W 093°20'0 0.0
2018-Jan-02 03:30N 30°06' W 093°20'0 0.0
2018-Jan-02 03:00N 30°06' W 093°20'0 0.0
2018-Jan-02 02:30N 30°06' W 093°20'0 0.0
2018-Jan-02 02:00N 30°06' W 093°20'0 0.0
2018-Jan-02 01:30N 30°06' W 093°20'0 0.0
2018-Jan-02 01:00N 30°06' W 093°20'0 0.0
2018-Jan-02 00:30N 30°06' W 093°20'0 0.0
2018-Jan-02 00:00N 30°06' W 093°20'0 0.0
2018-Jan-01 23:30N 30°06' W 093°20'0 0.0
2018-Jan-01 23:00N 30°06' W 093°20'0 0.0
2018-Jan-01 22:30N 30°06' W 093°20'0 0.0
2018-Jan-01 22:00N 30°06' W 093°20'1 2.0
2018-Jan-01 21:30N 30°05' W 093°20'2 3.5
2018-Jan-01 21:00N 30°04' W 093°21'0 0.0
2018-Jan-01 20:30N 30°04' W 093°21'0 0.0
2018-Jan-01 20:00N 30°04' W 093°21'0 0.0
2018-Jan-01 19:30N 30°04' W 093°21'0 0.0
2018-Jan-01 19:00N 30°04' W 093°21'0 0.0
2018-Jan-01 18:30N 30°04' W 093°21'1 2.9
2018-Jan-01 18:00N 30°05' W 093°20'1 2.5
2018-Jan-01 17:30N 30°06' W 093°20'0 0.0
2018-Jan-01 15:00N 30°06' W 093°20'0 0.0
2018-Jan-01 14:30N 30°06' W 093°20'0 0.0
2018-Jan-01 14:00N 30°06' W 093°20'0 0.0
2018-Jan-01 13:30N 30°06' W 093°20'0 0.0
2018-Jan-01 13:00N 30°06' W 093°20'0 0.0
2018-Jan-01 12:00N 30°06' W 093°20'0 0.0
2018-Jan-01 11:30N 30°06' W 093°20'0 0.0
2018-Jan-01 11:00N 30°06' W 093°20'0 0.0
2018-Jan-01 10:30N 30°06' W 093°20'0 0.0
2018-Jan-01 10:01N 30°06' W 093°20'0 0.0
2018-Jan-01 09:30N 30°06' W 093°20'0 0.0
2018-Jan-01 08:30N 30°06' W 093°20'0 0.0
2018-Jan-01 08:00N 30°06' W 093°20'0 0.0
2018-Jan-01 07:30N 30°06' W 093°20'0 0.0
2018-Jan-01 07:00N 30°06' W 093°20'0 0.0
2018-Jan-01 06:00N 30°06' W 093°20'0 0.0
2018-Jan-01 05:30N 30°06' W 093°20'0 0.0
2018-Jan-01 05:00N 30°06' W 093°20'0 0.0
2018-Jan-01 04:00N 30°06' W 093°20'0 0.0
2018-Jan-01 03:30N 30°06' W 093°20'0 0.0
2018-Jan-01 03:00N 30°06' W 093°20'0 0.0
2018-Jan-01 02:30N 30°06' W 093°20'0 0.0
2018-Jan-01 02:00N 30°06' W 093°20'0 0.0
2018-Jan-01 01:30N 30°06' W 093°20'0 0.0
2018-Jan-01 00:30N 30°06' W 093°20'0 0.0
2017-Dec-31 21:00N 30°06' W 093°20'0 0.1
2017-Dec-31 20:30N 30°06' W 093°20'0 0.3
2017-Dec-31 20:00N 30°06' W 093°20'0 0.3
2017-Dec-31 19:30N 30°06' W 093°20'1 2.3
2017-Dec-31 19:00N 30°05' W 093°20'2 3.6
2017-Dec-31 18:30N 30°04' W 093°21'0 0.1
2017-Dec-31 18:00N 30°04' W 093°21'2 3.7
2017-Dec-31 17:30N 30°05' W 093°20'1 2.1
2017-Dec-31 17:00N 30°06' W 093°20'0 0.3
2017-Dec-31 16:30N 30°06' W 093°20'0 0.2
2017-Dec-31 16:00N 30°06' W 093°20'0 0.2
2017-Dec-31 15:30N 30°06' W 093°20'0 0.0
2017-Dec-31 15:00N 30°06' W 093°20'2 3.4
2017-Dec-31 14:30N 30°04' W 093°20'1 2.5
2017-Dec-31 14:00N 30°04' W 093°21'2 4.6
2017-Dec-31 13:30N 30°05' W 093°20'1 1.5
2017-Dec-31 13:00N 30°06' W 093°20'0 0.0
2017-Dec-31 12:30N 30°06' W 093°20'0 0.0
2017-Dec-31 12:00N 30°06' W 093°20'0 0.0
2017-Dec-31 11:30N 30°06' W 093°20'0 0.0
2017-Dec-31 11:00N 30°06' W 093°20'0 0.0
2017-Dec-31 10:30N 30°06' W 093°20'0 0.0
2017-Dec-31 10:00N 30°06' W 093°20'0 0.0
2017-Dec-31 09:30N 30°06' W 093°20'0 0.0
2017-Dec-31 09:00N 30°06' W 093°20'0 0.0
2017-Dec-31 08:30N 30°06' W 093°20'0 0.0
2017-Dec-31 08:00N 30°06' W 093°20'0 0.0
2017-Dec-31 07:30N 30°06' W 093°20'0 0.0
2017-Dec-31 07:00N 30°06' W 093°20'0 0.0
2017-Dec-31 06:30N 30°06' W 093°20'0 0.0
2017-Dec-31 06:00N 30°06' W 093°20'0 0.0
2017-Dec-31 05:30N 30°06' W 093°20'0 0.0
2017-Dec-31 05:00N 30°06' W 093°20'0 0.0
2017-Dec-31 04:30N 30°06' W 093°20'0 0.0
2017-Dec-31 04:00N 30°06' W 093°20'0 0.0
2017-Dec-31 03:30N 30°06' W 093°20'0 0.0
2017-Dec-31 03:00N 30°06' W 093°20'0 0.0
2017-Dec-31 02:30N 30°06' W 093°20'0 0.0
2017-Dec-31 02:00N 30°06' W 093°20'0 0.0
2017-Dec-31 01:30N 30°06' W 093°20'0 0.0
2017-Dec-31 01:00N 30°06' W 093°20'1 2.0
2017-Dec-31 00:30N 30°05' W 093°20'2 3.9
2017-Dec-31 00:00N 30°04' W 093°21'1 1.1
2017-Dec-30 23:30N 30°04' W 093°21'2 4.7
2017-Dec-30 23:00N 30°06' W 093°20'0 0.3
2017-Dec-30 22:30N 30°06' W 093°20'0 0.2
2017-Dec-30 22:00N 30°06' W 093°20'0 0.0
2017-Dec-30 21:30N 30°06' W 093°20'0 0.0
2017-Dec-30 21:00N 30°06' W 093°20'0 0.0
2017-Dec-30 20:30N 30°06' W 093°20'0 0.0
2017-Dec-30 20:00N 30°06' W 093°20'0 0.0
2017-Dec-30 19:30N 30°06' W 093°20'0 0.1
2017-Dec-30 19:00N 30°06' W 093°20'2 3.0
2017-Dec-30 18:30N 30°05' W 093°20'1 2.9
2017-Dec-30 18:00N 30°04' W 093°21'0 0.1
2017-Dec-30 17:30N 30°04' W 093°21'1 2.0
2017-Dec-30 17:00N 30°04' W 093°21'2 3.9
2017-Dec-30 16:30N 30°06' W 093°20'0 0.3
2017-Dec-30 16:00N 30°06' W 093°20'0 0.6
2017-Dec-30 15:30N 30°06' W 093°20'2 4.4
2017-Dec-30 15:00N 30°04' W 093°21'1 1.3
2017-Dec-30 14:30N 30°04' W 093°21'0 0.0
2017-Dec-30 14:00N 30°04' W 093°21'0 0.2
2017-Dec-30 13:30N 30°04' W 093°21'2 5.0
2017-Dec-30 13:00N 30°06' W 093°20'1 1.1
2017-Dec-30 12:30N 30°06' W 093°20'0 0.0
2017-Dec-30 12:00N 30°06' W 093°20'0 0.0
2017-Dec-30 11:30N 30°06' W 093°20'0 0.0
2017-Dec-30 11:00N 30°06' W 093°20'0 0.0
2017-Dec-30 10:30N 30°06' W 093°20'0 0.0
2017-Dec-30 10:00N 30°06' W 093°20'0 0.0
2017-Dec-30 09:30N 30°06' W 093°20'0 0.0
2017-Dec-30 09:00N 30°06' W 093°20'0 0.0
2017-Dec-30 08:30N 30°06' W 093°20'0 0.0
2017-Dec-30 08:00N 30°06' W 093°20'0 0.0
2017-Dec-30 07:30N 30°06' W 093°20'0 0.0
2017-Dec-30 07:00N 30°06' W 093°20'0 0.0
2017-Dec-30 06:30N 30°06' W 093°20'0 0.0
2017-Dec-30 06:00N 30°06' W 093°20'0 0.0
2017-Dec-30 05:30N 30°06' W 093°20'0 0.0
2017-Dec-30 05:00N 30°06' W 093°20'0 0.0
2017-Dec-30 04:30N 30°06' W 093°20'0 0.0
2017-Dec-30 04:00N 30°06' W 093°20'0 0.0
2017-Dec-30 03:30N 30°06' W 093°20'0 0.0
2017-Dec-30 03:00N 30°06' W 093°20'0 0.0
2017-Dec-30 02:30N 30°06' W 093°20'0 0.0
2017-Dec-30 02:00N 30°06' W 093°20'0 0.8
2017-Dec-30 01:30N 30°06' W 093°20'2 3.8
2017-Dec-30 01:00N 30°04' W 093°21'1 1.7
2017-Dec-30 00:30N 30°04' W 093°21'0 0.0
2017-Dec-30 00:01N 30°04' W 093°21'0 0.0
2017-Dec-29 23:30N 30°04' W 093°22'0 0.1
2017-Dec-29 23:00N 30°04' W 093°21'1 2.1
2017-Dec-29 22:30N 30°04' W 093°21'1 2.7
2017-Dec-29 22:00N 30°05' W 093°20'1 2.9
2017-Dec-29 21:30N 30°06' W 093°18'1 1.2
2017-Dec-29 21:00N 30°05' W 093°17'1 2.2
2017-Dec-29 20:30N 30°04' W 093°16'0 0.2
2017-Dec-29 20:00N 30°04' W 093°16'0 0.0
2017-Dec-29 19:30N 30°04' W 093°16'0 0.0
2017-Dec-29 19:00N 30°04' W 093°16'0 0.0
2017-Dec-29 18:30N 30°04' W 093°16'0 0.1
2017-Dec-29 18:00N 30°04' W 093°16'0 0.7
2017-Dec-29 17:30N 30°04' W 093°16'2 3.6
2017-Dec-29 17:00N 30°02' W 093°16'2 3.8
2017-Dec-29 16:30N 30°01' W 093°14'2 4.0
2017-Dec-29 16:00N 29°59' W 093°13'2 4.3
2017-Dec-29 15:30N 29°58' W 093°11'2 4.3
2017-Dec-29 15:00N 29°56' W 093°10'2 4.1
2017-Dec-29 14:30N 29°56' W 093°07'2 3.6
2017-Dec-29 14:00N 29°56' W 093°05'2 4.1
2017-Dec-29 13:30N 29°56' W 093°03'  
Track history (hours):
 
Tides and Currents Weather Stations Pressure Air Temp Water Temp Dewpoint Dewpoint Depression Visibility Wind Speed Wind Dir Waves Ship Positions

St. Bartholomew

Owner: Marquette Transportation Company Gulf-Inland, LLC, Jefferson, LA. More information available from US FCC via Universal Licensing System and Coast Guard Vessel Documentation Center.

Last reported at 2018-Jan-07 22:54 UTC. Time now 2018-Jan-18 06:15 UTC.
Position N 32°40' W 091°07'.
Warning: this ship's position is 10 days out of date.

Length 223 m; draft 3.1 m.

Type: Towing. MMSI: 367718490.

Date/timePositionNaut miles runAvg speedWind from/ knotsBaromVisibWave heightAir tempDewpointWater temp
2018-Jan-07 22:54N 32°40' W 091°07'1 2.2
2018-Jan-07 22:31N 32°40' W 091°08'2 2.4
2018-Jan-07 21:49N 32°38' W 091°09'1 2.1
2018-Jan-07 21:31N 32°38' W 091°09'1 2.2
2018-Jan-07 21:01N 32°37' W 091°09'2 3.2
2018-Jan-07 20:31N 32°35' W 091°08'2 3.4
2018-Jan-07 19:51N 32°34' W 091°06'1 3.0
2018-Jan-07 19:31N 32°33' W 091°06'1 2.9
2018-Jan-07 19:00N 32°31' W 091°06'2 3.7
2018-Jan-07 18:31N 32°30' W 091°07'2 3.6
2018-Jan-07 18:00N 32°28' W 091°06'2 3.4
2018-Jan-07 17:31N 32°27' W 091°05'2 3.3
2018-Jan-07 17:01N 32°26' W 091°03'2 3.1
2018-Jan-07 16:31N 32°26' W 091°01'2 3.1
2018-Jan-07 16:01N 32°25' W 090°60'1 2.4
2018-Jan-07 15:31N 32°24' W 090°60'1 2.4
2018-Jan-07 15:01N 32°23' W 091°00'1 2.3
2018-Jan-07 14:31N 32°21' W 090°60'2 3.6
2018-Jan-07 14:01N 32°21' W 090°58'1 2.7
2018-Jan-07 13:31N 32°21' W 090°56'2 3.1
2018-Jan-07 13:01N 32°20' W 090°55'1 2.7
2018-Jan-07 12:30N 32°19' W 090°54'2 3.1
2018-Jan-07 12:01N 32°18' W 090°56'2 3.1
2018-Jan-07 11:31N 32°17' W 090°57'1 2.8
2018-Jan-07 11:01N 32°16' W 090°58'1 2.7
2018-Jan-07 10:31N 32°14' W 090°59'2 3.1
2018-Jan-07 10:00N 32°13' W 090°59'2 3.3
2018-Jan-07 09:31N 32°11' W 090°60'2 3.2
2018-Jan-07 09:01N 32°10' W 091°00'2 3.5
2018-Jan-07 08:31N 32°08' W 091°00'2 3.0
2018-Jan-07 07:59N 32°07' W 091°02'2 3.0
2018-Jan-07 07:10N 32°08' W 091°05'1 2.8
2018-Jan-07 06:53N 32°08' W 091°06'1 3.0
2018-Jan-07 06:30N 32°07' W 091°07'4 3.1
2018-Jan-07 05:06N 32°04' W 091°03'0 2.7
2018-Jan-07 05:01N 32°04' W 091°03'2 3.3
2018-Jan-07 04:22N 32°02' W 091°04'  
2018-Jan-03 19:58N 29°50' W 091°58'0 0.7
2018-Jan-03 19:30N 29°50' W 091°58'3 5.8
2018-Jan-03 18:55N 29°49' W 092°02'2 5.2
2018-Jan-03 18:30N 29°48' W 092°04'3 5.3
2018-Jan-03 18:00N 29°47' W 092°07'2 3.2
2018-Jan-03 17:30N 29°47' W 092°09'3 5.3
2018-Jan-03 17:00N 29°47' W 092°12'1 3.0
2018-Jan-03 16:30N 29°48' W 092°13'3 6.6
2018-Jan-03 16:00N 29°49' W 092°17'3 5.9
2018-Jan-03 15:30N 29°50' W 092°20'36 5.0
2018-Jan-03 08:20N 29°56' W 093°00'2 4.5
2018-Jan-03 07:58N 29°56' W 093°02'1 1.5
2018-Jan-03 07:30N 29°56' W 093°03'3 5.6
2018-Jan-03 07:00N 29°56' W 093°06'1 2.2
2018-Jan-03 06:30N 29°56' W 093°07'1 1.2
2018-Jan-03 06:00N 29°56' W 093°08'0 0.0
2018-Jan-03 05:30N 29°56' W 093°08'1 2.1
2018-Jan-03 05:00N 29°56' W 093°09'3 5.7
2018-Jan-03 04:30N 29°58' W 093°12'3 5.7
2018-Jan-03 04:00N 30°00' W 093°14'3 5.2
2018-Jan-03 03:30N 30°02' W 093°16'3 5.6
2018-Jan-03 03:00N 30°05' W 093°17'1 2.7
2018-Jan-03 02:30N 30°06' W 093°18'0 0.0
2018-Jan-03 02:00N 30°06' W 093°18'0 0.7
2018-Jan-03 01:30N 30°06' W 093°19'1 1.9
2018-Jan-03 01:00N 30°06' W 093°20'0 0.3
2018-Jan-03 00:30N 30°06' W 093°20'0 0.0
2018-Jan-03 00:00N 30°06' W 093°20'0 0.2
2018-Jan-02 23:30N 30°06' W 093°20'0 0.0
2018-Jan-02 23:00N 30°06' W 093°20'0 0.0
2018-Jan-02 22:30N 30°06' W 093°20'0 0.0
2018-Jan-02 22:00N 30°06' W 093°20'0 0.0
2018-Jan-02 21:30N 30°06' W 093°20'0 0.0
2018-Jan-02 21:00N 30°06' W 093°20'0 0.0
2018-Jan-02 20:30N 30°06' W 093°20'0 0.0
2018-Jan-02 20:00N 30°06' W 093°20'0 0.0
2018-Jan-02 19:30N 30°06' W 093°20'0 0.0
2018-Jan-02 19:00N 30°06' W 093°20'0 0.0
2018-Jan-02 18:30N 30°06' W 093°20'0 0.0
2018-Jan-02 18:00N 30°06' W 093°20'0 0.0
2018-Jan-02 17:30N 30°06' W 093°20'0 0.0
2018-Jan-02 17:00N 30°06' W 093°20'0 0.0
2018-Jan-02 16:30N 30°06' W 093°20'0 0.0
2018-Jan-02 16:00N 30°06' W 093°20'0 0.0
2018-Jan-02 15:30N 30°06' W 093°20'0 0.0
2018-Jan-02 15:00N 30°06' W 093°20'0 0.0
2018-Jan-02 14:30N 30°06' W 093°20'0 0.0
2018-Jan-02 14:00N 30°06' W 093°20'0 0.0
2018-Jan-02 13:30N 30°06' W 093°20'0 0.0
2018-Jan-02 13:00N 30°06' W 093°20'0 0.0
2018-Jan-02 12:30N 30°06' W 093°20'0 0.0
2018-Jan-02 12:00N 30°06' W 093°20'0 0.0
2018-Jan-02 11:30N 30°06' W 093°20'0 0.0
2018-Jan-02 11:00N 30°06' W 093°20'0 0.0
2018-Jan-02 10:30N 30°06' W 093°20'0 0.0
2018-Jan-02 10:00N 30°06' W 093°20'0 0.0
2018-Jan-02 09:30N 30°06' W 093°20'0 0.0
2018-Jan-02 08:30N 30°06' W 093°20'0 0.0
2018-Jan-02 08:00N 30°06' W 093°20'0 0.0
2018-Jan-02 07:30N 30°06' W 093°20'0 0.0
2018-Jan-02 07:00N 30°06' W 093°20'0 0.0
2018-Jan-02 06:30N 30°06' W 093°20'0 0.0
2018-Jan-02 06:00N 30°06' W 093°20'0 0.0
2018-Jan-02 05:30N 30°06' W 093°20'0 0.0
2018-Jan-02 04:30N 30°06' W 093°20'0 0.0
2018-Jan-02 04:00N 30°06' W 093°20'0 0.0
2018-Jan-02 03:30N 30°06' W 093°20'0 0.0
2018-Jan-02 03:00N 30°06' W 093°20'0 0.0
2018-Jan-02 02:30N 30°06' W 093°20'0 0.0
2018-Jan-02 02:00N 30°06' W 093°20'0 0.0
2018-Jan-02 01:30N 30°06' W 093°20'0 0.0
2018-Jan-02 01:00N 30°06' W 093°20'0 0.0
2018-Jan-02 00:30N 30°06' W 093°20'0 0.0
2018-Jan-02 00:00N 30°06' W 093°20'0 0.0
2018-Jan-01 23:30N 30°06' W 093°20'0 0.0
2018-Jan-01 23:00N 30°06' W 093°20'0 0.0
2018-Jan-01 22:30N 30°06' W 093°20'0 0.0
2018-Jan-01 22:00N 30°06' W 093°20'1 2.0
2018-Jan-01 21:30N 30°05' W 093°20'2 3.5
2018-Jan-01 21:00N 30°04' W 093°21'0 0.0
2018-Jan-01 20:30N 30°04' W 093°21'0 0.0
2018-Jan-01 20:00N 30°04' W 093°21'0 0.0
2018-Jan-01 19:30N 30°04' W 093°21'0 0.0
2018-Jan-01 19:00N 30°04' W 093°21'0 0.0
2018-Jan-01 18:30N 30°04' W 093°21'1 2.9
2018-Jan-01 18:00N 30°05' W 093°20'1 2.5
2018-Jan-01 17:30N 30°06' W 093°20'0 0.0
2018-Jan-01 15:00N 30°06' W 093°20'0 0.0
2018-Jan-01 14:30N 30°06' W 093°20'0 0.0
2018-Jan-01 14:00N 30°06' W 093°20'0 0.0
2018-Jan-01 13:30N 30°06' W 093°20'0 0.0
2018-Jan-01 13:00N 30°06' W 093°20'0 0.0
2018-Jan-01 12:00N 30°06' W 093°20'0 0.0
2018-Jan-01 11:30N 30°06' W 093°20'0 0.0
2018-Jan-01 11:00N 30°06' W 093°20'0 0.0
2018-Jan-01 10:30N 30°06' W 093°20'0 0.0
2018-Jan-01 10:01N 30°06' W 093°20'0 0.0
2018-Jan-01 09:30N 30°06' W 093°20'0 0.0
2018-Jan-01 08:30N 30°06' W 093°20'0 0.0
2018-Jan-01 08:00N 30°06' W 093°20'0 0.0
2018-Jan-01 07:30N 30°06' W 093°20'0 0.0
2018-Jan-01 07:00N 30°06' W 093°20'0 0.0
2018-Jan-01 06:00N 30°06' W 093°20'0 0.0
2018-Jan-01 05:30N 30°06' W 093°20'0 0.0
2018-Jan-01 05:00N 30°06' W 093°20'0 0.0
2018-Jan-01 04:00N 30°06' W 093°20'0 0.0
2018-Jan-01 03:30N 30°06' W 093°20'0 0.0
2018-Jan-01 03:00N 30°06' W 093°20'0 0.0
2018-Jan-01 02:30N 30°06' W 093°20'0 0.0
2018-Jan-01 02:00N 30°06' W 093°20'0 0.0
2018-Jan-01 01:30N 30°06' W 093°20'0 0.0
2018-Jan-01 00:30N 30°06' W 093°20'0 0.0
2017-Dec-31 21:00N 30°06' W 093°20'0 0.1
2017-Dec-31 20:30N 30°06' W 093°20'0 0.3
2017-Dec-31 20:00N 30°06' W 093°20'0 0.3
2017-Dec-31 19:30N 30°06' W 093°20'1 2.3
2017-Dec-31 19:00N 30°05' W 093°20'2 3.6
2017-Dec-31 18:30N 30°04' W 093°21'0 0.1
2017-Dec-31 18:00N 30°04' W 093°21'2 3.7
2017-Dec-31 17:30N 30°05' W 093°20'1 2.1
2017-Dec-31 17:00N 30°06' W 093°20'0 0.3
2017-Dec-31 16:30N 30°06' W 093°20'0 0.2
2017-Dec-31 16:00N 30°06' W 093°20'0 0.2
2017-Dec-31 15:30N 30°06' W 093°20'0 0.0
2017-Dec-31 15:00N 30°06' W 093°20'2 3.4
2017-Dec-31 14:30N 30°04' W 093°20'1 2.5
2017-Dec-31 14:00N 30°04' W 093°21'2 4.6
2017-Dec-31 13:30N 30°05' W 093°20'1 1.5
2017-Dec-31 13:00N 30°06' W 093°20'0 0.0
2017-Dec-31 12:30N 30°06' W 093°20'0 0.0
2017-Dec-31 12:00N 30°06' W 093°20'0 0.0
2017-Dec-31 11:30N 30°06' W 093°20'0 0.0
2017-Dec-31 11:00N 30°06' W 093°20'0 0.0
2017-Dec-31 10:30N 30°06' W 093°20'0 0.0
2017-Dec-31 10:00N 30°06' W 093°20'0 0.0
2017-Dec-31 09:30N 30°06' W 093°20'0 0.0
2017-Dec-31 09:00N 30°06' W 093°20'0 0.0
2017-Dec-31 08:30N 30°06' W 093°20'0 0.0
2017-Dec-31 08:00N 30°06' W 093°20'0 0.0
2017-Dec-31 07:30N 30°06' W 093°20'0 0.0
2017-Dec-31 07:00N 30°06' W 093°20'0 0.0
2017-Dec-31 06:30N 30°06' W 093°20'0 0.0
2017-Dec-31 06:00N 30°06' W 093°20'0 0.0
2017-Dec-31 05:30N 30°06' W 093°20'0 0.0
2017-Dec-31 05:00N 30°06' W 093°20'0 0.0
2017-Dec-31 04:30N 30°06' W 093°20'0 0.0
2017-Dec-31 04:00N 30°06' W 093°20'0 0.0
2017-Dec-31 03:30N 30°06' W 093°20'0 0.0
2017-Dec-31 03:00N 30°06' W 093°20'0 0.0
2017-Dec-31 02:30N 30°06' W 093°20'0 0.0
2017-Dec-31 02:00N 30°06' W 093°20'0 0.0
2017-Dec-31 01:30N 30°06' W 093°20'0 0.0
2017-Dec-31 01:00N 30°06' W 093°20'1 2.0
2017-Dec-31 00:30N 30°05' W 093°20'2 3.9
2017-Dec-31 00:00N 30°04' W 093°21'1 1.1
2017-Dec-30 23:30N 30°04' W 093°21'2 4.7
2017-Dec-30 23:00N 30°06' W 093°20'0 0.3
2017-Dec-30 22:30N 30°06' W 093°20'0 0.2
2017-Dec-30 22:00N 30°06' W 093°20'0 0.0
2017-Dec-30 21:30N 30°06' W 093°20'0 0.0
2017-Dec-30 21:00N 30°06' W 093°20'0 0.0
2017-Dec-30 20:30N 30°06' W 093°20'0 0.0
2017-Dec-30 20:00N 30°06' W 093°20'0 0.0
2017-Dec-30 19:30N 30°06' W 093°20'0 0.1
2017-Dec-30 19:00N 30°06' W 093°20'2 3.0
2017-Dec-30 18:30N 30°05' W 093°20'1 2.9
2017-Dec-30 18:00N 30°04' W 093°21'0 0.1
2017-Dec-30 17:30N 30°04' W 093°21'1 2.0
2017-Dec-30 17:00N 30°04' W 093°21'2 3.9
2017-Dec-30 16:30N 30°06' W 093°20'0 0.3
2017-Dec-30 16:00N 30°06' W 093°20'0 0.6
2017-Dec-30 15:30N 30°06' W 093°20'2 4.4
2017-Dec-30 15:00N 30°04' W 093°21'1 1.3
2017-Dec-30 14:30N 30°04' W 093°21'0 0.0
2017-Dec-30 14:00N 30°04' W 093°21'0 0.2
2017-Dec-30 13:30N 30°04' W 093°21'2 5.0
2017-Dec-30 13:00N 30°06' W 093°20'1 1.1
2017-Dec-30 12:30N 30°06' W 093°20'0 0.0
2017-Dec-30 12:00N 30°06' W 093°20'0 0.0
2017-Dec-30 11:30N 30°06' W 093°20'0 0.0
2017-Dec-30 11:00N 30°06' W 093°20'0 0.0
2017-Dec-30 10:30N 30°06' W 093°20'0 0.0
2017-Dec-30 10:00N 30°06' W 093°20'0 0.0
2017-Dec-30 09:30N 30°06' W 093°20'0 0.0
2017-Dec-30 09:00N 30°06' W 093°20'0 0.0
2017-Dec-30 08:30N 30°06' W 093°20'0 0.0
2017-Dec-30 08:00N 30°06' W 093°20'0 0.0
2017-Dec-30 07:30N 30°06' W 093°20'0 0.0
2017-Dec-30 07:00N 30°06' W 093°20'0 0.0
2017-Dec-30 06:30N 30°06' W 093°20'0 0.0
2017-Dec-30 06:00N 30°06' W 093°20'0 0.0
2017-Dec-30 05:30N 30°06' W 093°20'0 0.0
2017-Dec-30 05:00N 30°06' W 093°20'0 0.0
2017-Dec-30 04:30N 30°06' W 093°20'0 0.0
2017-Dec-30 04:00N 30°06' W 093°20'0 0.0
2017-Dec-30 03:30N 30°06' W 093°20'0 0.0
2017-Dec-30 03:00N 30°06' W 093°20'0 0.0
2017-Dec-30 02:30N 30°06' W 093°20'0 0.0
2017-Dec-30 02:00N 30°06' W 093°20'0 0.8
2017-Dec-30 01:30N 30°06' W 093°20'2 3.8
2017-Dec-30 01:00N 30°04' W 093°21'1 1.7
2017-Dec-30 00:30N 30°04' W 093°21'0 0.0
2017-Dec-30 00:01N 30°04' W 093°21'0 0.0
2017-Dec-29 23:30N 30°04' W 093°22'0 0.1
2017-Dec-29 23:00N 30°04' W 093°21'1 2.1
2017-Dec-29 22:30N 30°04' W 093°21'1 2.7
2017-Dec-29 22:00N 30°05' W 093°20'1 2.9
2017-Dec-29 21:30N 30°06' W 093°18'1 1.2
2017-Dec-29 21:00N 30°05' W 093°17'1 2.2
2017-Dec-29 20:30N 30°04' W 093°16'0 0.2
2017-Dec-29 20:00N 30°04' W 093°16'0 0.0
2017-Dec-29 19:30N 30°04' W 093°16'0 0.0
2017-Dec-29 19:00N 30°04' W 093°16'0 0.0
2017-Dec-29 18:30N 30°04' W 093°16'0 0.1
2017-Dec-29 18:00N 30°04' W 093°16'0 0.7
2017-Dec-29 17:30N 30°04' W 093°16'2 3.6
2017-Dec-29 17:00N 30°02' W 093°16'2 3.8
2017-Dec-29 16:30N 30°01' W 093°14'2 4.0
2017-Dec-29 16:00N 29°59' W 093°13'2 4.3
2017-Dec-29 15:30N 29°58' W 093°11'2 4.3
2017-Dec-29 15:00N 29°56' W 093°10'2 4.1
2017-Dec-29 14:30N 29°56' W 093°07'2 3.6
2017-Dec-29 14:00N 29°56' W 093°05'2 4.1
2017-Dec-29 13:30N 29°56' W 093°03'  

Dump ship's entire track history